Panhandle, Texas
Current Conditions -  °F | °C
As of 6:53 PM on Sunday 23 Nov 2014 (Local Time) from KAMA Reporting Station
Clear Clear  
Wind Chill: 28°   Ceiling: Unl
Heat Index: 37°   Visibility: 10mi
Dew Point: 32°   Wind: 14mph
Humidity: 82%   Direction: 300°WNW
Pressure: 29.83"   Gusts: NA
Location:  35.35°N, 101.38°W
Report Text: KAMA 240053Z 30012KT 10SM CLR 03/00 A2983 RMK AO2 SLP091 T00280000
Loading
Personal Weather Stations






























Interactive Weather Map New forecast layout! Learn more

10-Day Weather Forecast

Advertisements
Track Severe Weather on mobile